Silver Lakes, CA (92342)

9:02 AM PST on March 02, 2015 (GMT -0800)
BYRD STATION | Change Station
CLOSE
Current Station
Personal Weather Station
Location: Helendale (Silver Lakes), CA
Elevation: 2488 ft
Nearby Weather Stations

Elev 2488 ft 34.74 °N, 117.35 °W | Updated 7 seconds ago

Clear
Clear
48.7 °F
Feels Like 47 °F
N
5.0
Wind Variable Wind from SW
Gusts 11.0 mph

Today
High -- | Low -- °F
--% Chance of Precip.
Yesterday
High -- | Low -- °F
Precip. -- in
6:17 AM 5:45 PM
Waxing Gibbous, 92% visible
Pressure 29.85 in
Visibility 10.0 miles
Clouds Clear
Windchill 47 °F
Dew Point 39 °F
Humidity 68%
Rainfall 0.00 in
Snow Depth Not available.
UV 2 out of 12
Pollen 7.80 out of 12
Air Quality Not available.
Flu Activity Not available.
METAR KVCV 021615Z AUTO 21004KT 10SM CLR 07/02 A2985 RMK AO2

More Conditions Fewer Conditions

Pressure 29.85 in
Visibility 10.0 miles
Clouds Clear
Windchill 47 °F
Dew Point 39 °F
Humidity 68%
Rainfall 0.00 in
Snow Depth Not available.
UV 2 out of 12
Pollen 7.80 out of 12
Air Quality Not available.
Flu Activity Not available.
METAR KVCV 021615Z AUTO 21004KT 10SM CLR 07/02 A2985 RMK AO2

More Conditions Fewer Conditions

10-Day Weather Forecast

Almanac

Astronomy

Mar. 02, 2015 Rise Set
Actual Time
Civil Twilight
Nautical Twilight
Astronomical Twilight
Moon
Length of Visible Light
Length of Day
Tomorrow will be .
, % of the Moon is Illuminated

Today's Extremes

State Highs State Lows

Community

WunderPhotos

Upload Photos

1,801,852 photos uploaded!

WunderBlogs® & News

Nearby

Air Quality

  Air Quality AQ Index Pollutant
Not available.

Snow Depth

Station Depth Elevation

Earthquake Activity

City Distance Mag. Time & Date
Minimum magnitude displayed is 2.5.

Coastal Water Temperatures

Place Temperature

Nearby Weather Stations